sensor_id;sensor_type;location;lat;lon;timestamp;temperature;humidity
8928;DHT22;4499;48.304;11.902;2022-09-09T00:02:13;13.90;99.90
8928;DHT22;4499;48.304;11.902;2022-09-09T00:04:52;13.80;99.90
8928;DHT22;4499;48.304;11.902;2022-09-09T00:07:28;13.80;99.90
8928;DHT22;4499;48.304;11.902;2022-09-09T00:10:05;13.70;99.90
8928;DHT22;4499;48.304;11.902;2022-09-09T00:12:41;13.60;99.90
8928;DHT22;4499;48.304;11.902;2022-09-09T00:15:13;13.50;99.90
8928;DHT22;4499;48.304;11.902;2022-09-09T00:17:48;13.50;99.90
8928;DHT22;4499;48.304;11.902;2022-09-09T00:20:25;13.40;99.90
8928;DHT22;4499;48.304;11.902;2022-09-09T00:23:00;13.40;99.90
8928;DHT22;4499;48.304;11.902;2022-09-09T00:25:33;13.30;99.90
8928;DHT22;4499;48.304;11.902;2022-09-09T00:28:13;13.30;99.90
8928;DHT22;4499;48.304;11.902;2022-09-09T00:30:46;13.30;99.90
8928;DHT22;4499;48.304;11.902;2022-09-09T00:33:18;13.20;99.90
8928;DHT22;4499;48.304;11.902;2022-09-09T00:35:51;13.30;99.90
8928;DHT22;4499;48.304;11.902;2022-09-09T00:38:25;13.20;99.90
8928;DHT22;4499;48.304;11.902;2022-09-09T00:41:01;13.30;99.90
8928;DHT22;4499;48.304;11.902;2022-09-09T00:43:33;13.30;99.90
8928;DHT22;4499;48.304;11.902;2022-09-09T00:46:27;13.30;99.90
8928;DHT22;4499;48.304;11.902;2022-09-09T00:49:07;13.30;99.90
8928;DHT22;4499;48.304;11.902;2022-09-09T00:51:46;13.30;99.90
8928;DHT22;4499;48.304;11.902;2022-09-09T00:54:30;13.30;99.90
8928;DHT22;4499;48.304;11.902;2022-09-09T00:57:12;13.30;99.90
8928;DHT22;4499;48.304;11.902;2022-09-09T00:59:47;13.30;99.90
8928;DHT22;4499;48.304;11.902;2022-09-09T01:02:28;13.30;99.90
8928;DHT22;4499;48.304;11.902;2022-09-09T01:05:02;13.40;99.90
8928;DHT22;4499;48.304;11.902;2022-09-09T01:07:34;13.40;99.90
8928;DHT22;4499;48.304;11.902;2022-09-09T01:10:08;13.40;99.90
8928;DHT22;4499;48.304;11.902;2022-09-09T01:12:41;13.40;99.90
8928;DHT22;4499;48.304;11.902;2022-09-09T01:15:11;13.40;99.90
8928;DHT22;4499;48.304;11.902;2022-09-09T01:17:50;13.40;99.90
8928;DHT22;4499;48.304;11.902;2022-09-09T01:20:23;13.40;99.90
8928;DHT22;4499;48.304;11.902;2022-09-09T01:23:24;13.40;99.90
8928;DHT22;4499;48.304;11.902;2022-09-09T01:26:18;13.40;99.90
8928;DHT22;4499;48.304;11.902;2022-09-09T01:28:48;13.40;99.90
8928;DHT22;4499;48.304;11.902;2022-09-09T01:31:21;13.40;99.90
8928;DHT22;4499;48.304;11.902;2022-09-09T01:33:50;13.40;99.90
8928;DHT22;4499;48.304;11.902;2022-09-09T01:36:24;13.30;99.90
8928;DHT22;4499;48.304;11.902;2022-09-09T01:38:54;13.40;99.90
8928;DHT22;4499;48.304;11.902;2022-09-09T01:41:23;13.40;99.90
8928;DHT22;4499;48.304;11.902;2022-09-09T01:43:53;13.40;99.90
8928;DHT22;4499;48.304;11.902;2022-09-09T01:46:22;13.40;99.90
8928;DHT22;4499;48.304;11.902;2022-09-09T01:48:51;13.40;99.90
8928;DHT22;4499;48.304;11.902;2022-09-09T01:51:20;13.40;99.90
8928;DHT22;4499;48.304;11.902;2022-09-09T01:53:48;13.40;99.90
8928;DHT22;4499;48.304;11.902;2022-09-09T01:56:25;13.40;99.90
8928;DHT22;4499;48.304;11.902;2022-09-09T01:59:08;13.40;99.90
8928;DHT22;4499;48.304;11.902;2022-09-09T02:01:46;13.40;99.90
8928;DHT22;4499;48.304;11.902;2022-09-09T02:04:33;13.40;99.90
8928;DHT22;4499;48.304;11.902;2022-09-09T02:07:08;13.40;99.90
8928;DHT22;4499;48.304;11.902;2022-09-09T02:09:39;13.50;99.90
8928;DHT22;4499;48.304;11.902;2022-09-09T02:12:14;13.50;99.90
8928;DHT22;4499;48.304;11.902;2022-09-09T02:14:48;13.50;99.90
8928;DHT22;4499;48.304;11.902;2022-09-09T02:17:21;13.50;99.90
8928;DHT22;4499;48.304;11.902;2022-09-09T02:19:55;13.40;99.90
8928;DHT22;4499;48.304;11.902;2022-09-09T02:22:26;13.40;99.90
8928;DHT22;4499;48.304;11.902;2022-09-09T02:24:58;13.40;99.90
8928;DHT22;4499;48.304;11.902;2022-09-09T02:27:29;13.30;99.90
8928;DHT22;4499;48.304;11.902;2022-09-09T02:29:59;13.30;99.90
8928;DHT22;4499;48.304;11.902;2022-09-09T02:32:30;13.30;99.90
8928;DHT22;4499;48.304;11.902;2022-09-09T02:35:03;13.20;99.90
8928;DHT22;4499;48.304;11.902;2022-09-09T02:37:37;13.20;99.90
8928;DHT22;4499;48.304;11.902;2022-09-09T02:40:08;13.20;99.90
8928;DHT22;4499;48.304;11.902;2022-09-09T02:42:41;13.20;99.90
8928;DHT22;4499;48.304;11.902;2022-09-09T02:45:11;13.20;99.90
8928;DHT22;4499;48.304;11.902;2022-09-09T02:47:47;13.20;99.90
8928;DHT22;4499;48.304;11.902;2022-09-09T02:50:22;13.10;99.90
8928;DHT22;4499;48.304;11.902;2022-09-09T02:53:02;13.10;99.90
8928;DHT22;4499;48.304;11.902;2022-09-09T02:55:38;13.20;99.90
8928;DHT22;4499;48.304;11.902;2022-09-09T02:58:11;13.20;99.90
8928;DHT22;4499;48.304;11.902;2022-09-09T03:00:44;13.20;99.90
8928;DHT22;4499;48.304;11.902;2022-09-09T03:03:13;13.20;99.90
8928;DHT22;4499;48.304;11.902;2022-09-09T03:05:43;13.30;99.90
8928;DHT22;4499;48.304;11.902;2022-09-09T03:08:12;13.30;99.90
8928;DHT22;4499;48.304;11.902;2022-09-09T03:10:40;13.40;99.90
8928;DHT22;4499;48.304;11.902;2022-09-09T03:13:10;13.40;99.90
8928;DHT22;4499;48.304;11.902;2022-09-09T03:15:38;13.40;99.90
8928;DHT22;4499;48.304;11.902;2022-09-09T03:18:06;13.50;99.90
8928;DHT22;4499;48.304;11.902;2022-09-09T03:20:35;13.50;99.90
8928;DHT22;4499;48.304;11.902;2022-09-09T03:23:03;13.50;99.90
8928;DHT22;4499;48.304;11.902;2022-09-09T03:25:31;13.50;99.90
8928;DHT22;4499;48.304;11.902;2022-09-09T03:28:00;13.50;99.90
8928;DHT22;4499;48.304;11.902;2022-09-09T03:30:29;13.50;99.90
8928;DHT22;4499;48.304;11.902;2022-09-09T03:32:58;13.50;99.90
8928;DHT22;4499;48.304;11.902;2022-09-09T03:35:26;13.50;99.90
8928;DHT22;4499;48.304;11.902;2022-09-09T03:37:54;13.50;99.90
8928;DHT22;4499;48.304;11.902;2022-09-09T03:40:22;13.50;99.90
8928;DHT22;4499;48.304;11.902;2022-09-09T03:42:50;13.50;99.90
8928;DHT22;4499;48.304;11.902;2022-09-09T03:45:19;13.50;99.90
8928;DHT22;4499;48.304;11.902;2022-09-09T03:47:48;13.40;99.90
8928;DHT22;4499;48.304;11.902;2022-09-09T03:50:16;13.40;99.90
8928;DHT22;4499;48.304;11.902;2022-09-09T03:52:45;13.40;99.90
8928;DHT22;4499;48.304;11.902;2022-09-09T03:55:13;13.30;99.90
8928;DHT22;4499;48.304;11.902;2022-09-09T03:57:41;13.30;99.90
8928;DHT22;4499;48.304;11.902;2022-09-09T04:00:10;13.20;99.90
8928;DHT22;4499;48.304;11.902;2022-09-09T04:02:38;13.20;99.90
8928;DHT22;4499;48.304;11.902;2022-09-09T04:05:08;13.10;99.90
8928;DHT22;4499;48.304;11.902;2022-09-09T04:07:36;13.10;99.90
8928;DHT22;4499;48.304;11.902;2022-09-09T04:10:05;13.10;99.90
8928;DHT22;4499;48.304;11.902;2022-09-09T04:12:33;13.10;99.90
8928;DHT22;4499;48.304;11.902;2022-09-09T04:15:02;13.10;99.90
8928;DHT22;4499;48.304;11.902;2022-09-09T04:17:30;13.10;99.90
8928;DHT22;4499;48.304;11.902;2022-09-09T04:19:59;13.10;99.90
8928;DHT22;4499;48.304;11.902;2022-09-09T04:22:30;13.10;99.90
8928;DHT22;4499;48.304;11.902;2022-09-09T04:24:58;13.20;99.90
8928;DHT22;4499;48.304;11.902;2022-09-09T04:27:26;13.20;99.90
8928;DHT22;4499;48.304;11.902;2022-09-09T04:29:54;13.30;99.90
8928;DHT22;4499;48.304;11.902;2022-09-09T04:32:23;13.30;99.90
8928;DHT22;4499;48.304;11.902;2022-09-09T04:34:53;13.30;99.90
8928;DHT22;4499;48.304;11.902;2022-09-09T04:37:21;13.30;99.90
8928;DHT22;4499;48.304;11.902;2022-09-09T04:39:51;13.30;99.90
8928;DHT22;4499;48.304;11.902;2022-09-09T04:42:19;13.30;99.90
8928;DHT22;4499;48.304;11.902;2022-09-09T04:44:47;13.30;99.90
8928;DHT22;4499;48.304;11.902;2022-09-09T04:47:15;13.30;99.90
8928;DHT22;4499;48.304;11.902;2022-09-09T04:49:43;13.40;99.90
8928;DHT22;4499;48.304;11.902;2022-09-09T04:52:11;13.30;99.90
8928;DHT22;4499;48.304;11.902;2022-09-09T04:54:39;13.30;99.90
8928;DHT22;4499;48.304;11.902;2022-09-09T04:57:10;13.30;99.90
8928;DHT22;4499;48.304;11.902;2022-09-09T04:59:44;13.30;99.90
8928;DHT22;4499;48.304;11.902;2022-09-09T05:02:12;13.30;99.90
8928;DHT22;4499;48.304;11.902;2022-09-09T05:04:40;13.30;99.90
8928;DHT22;4499;48.304;11.902;2022-09-09T05:07:08;13.30;99.90
8928;DHT22;4499;48.304;11.902;2022-09-09T05:09:37;13.30;99.90
8928;DHT22;4499;48.304;11.902;2022-09-09T05:12:05;13.30;99.90
8928;DHT22;4499;48.304;11.902;2022-09-09T05:14:34;13.30;99.90
8928;DHT22;4499;48.304;11.902;2022-09-09T05:17:04;13.30;99.90
8928;DHT22;4499;48.304;11.902;2022-09-09T05:19:31;13.30;99.90
8928;DHT22;4499;48.304;11.902;2022-09-09T05:21:59;13.30;99.90
8928;DHT22;4499;48.304;11.902;2022-09-09T05:24:28;13.30;99.90
8928;DHT22;4499;48.304;11.902;2022-09-09T05:26:59;13.30;99.90
8928;DHT22;4499;48.304;11.902;2022-09-09T05:29:29;13.40;99.90
8928;DHT22;4499;48.304;11.902;2022-09-09T05:32:01;13.80;99.90
8928;DHT22;4499;48.304;11.902;2022-09-09T05:34:29;14.30;99.90
8928;DHT22;4499;48.304;11.902;2022-09-09T05:36:58;14.40;99.90
8928;DHT22;4499;48.304;11.902;2022-09-09T05:39:26;14.20;99.90
8928;DHT22;4499;48.304;11.902;2022-09-09T05:41:54;14.00;99.90
8928;DHT22;4499;48.304;11.902;2022-09-09T05:44:22;13.90;99.90
8928;DHT22;4499;48.304;11.902;2022-09-09T05:46:54;13.90;99.90
8928;DHT22;4499;48.304;11.902;2022-09-09T05:49:24;13.90;99.90
8928;DHT22;4499;48.304;11.902;2022-09-09T05:51:52;13.80;99.90
8928;DHT22;4499;48.304;11.902;2022-09-09T05:54:20;13.90;99.90
8928;DHT22;4499;48.304;11.902;2022-09-09T05:56:48;13.90;99.90
8928;DHT22;4499;48.304;11.902;2022-09-09T05:59:19;13.90;99.90
8928;DHT22;4499;48.304;11.902;2022-09-09T06:01:49;13.90;99.90
8928;DHT22;4499;48.304;11.902;2022-09-09T06:04:18;13.90;99.90
8928;DHT22;4499;48.304;11.902;2022-09-09T06:06:50;13.90;99.90
8928;DHT22;4499;48.304;11.902;2022-09-09T06:09:18;13.90;99.90
8928;DHT22;4499;48.304;11.902;2022-09-09T06:11:47;13.90;99.90
8928;DHT22;4499;48.304;11.902;2022-09-09T06:14:15;14.00;99.90
8928;DHT22;4499;48.304;11.902;2022-09-09T06:16:44;14.00;99.90
8928;DHT22;4499;48.304;11.902;2022-09-09T06:19:12;13.90;99.90
8928;DHT22;4499;48.304;11.902;2022-09-09T06:21:42;13.90;99.90
8928;DHT22;4499;48.304;11.902;2022-09-09T06:24:12;13.90;99.90
8928;DHT22;4499;48.304;11.902;2022-09-09T06:26:43;14.00;99.90
8928;DHT22;4499;48.304;11.902;2022-09-09T06:29:12;14.00;99.90
8928;DHT22;4499;48.304;11.902;2022-09-09T06:31:45;14.10;99.90
8928;DHT22;4499;48.304;11.902;2022-09-09T06:34:14;14.20;99.90
8928;DHT22;4499;48.304;11.902;2022-09-09T06:36:42;14.20;99.90
8928;DHT22;4499;48.304;11.902;2022-09-09T06:39:13;14.30;99.90
8928;DHT22;4499;48.304;11.902;2022-09-09T06:41:42;14.40;99.90
8928;DHT22;4499;48.304;11.902;2022-09-09T06:44:11;14.40;99.90
8928;DHT22;4499;48.304;11.902;2022-09-09T06:46:39;14.40;99.90
8928;DHT22;4499;48.304;11.902;2022-09-09T06:49:08;14.40;99.90
8928;DHT22;4499;48.304;11.902;2022-09-09T06:51:37;14.50;99.90
8928;DHT22;4499;48.304;11.902;2022-09-09T06:54:10;14.50;99.90
8928;DHT22;4499;48.304;11.902;2022-09-09T06:56:41;14.50;99.90
8928;DHT22;4499;48.304;11.902;2022-09-09T06:59:10;14.50;99.90
8928;DHT22;4499;48.304;11.902;2022-09-09T07:01:40;14.50;99.90
8928;DHT22;4499;48.304;11.902;2022-09-09T07:04:08;14.50;99.90
8928;DHT22;4499;48.304;11.902;2022-09-09T07:06:39;14.50;99.90
8928;DHT22;4499;48.304;11.902;2022-09-09T07:09:09;14.50;99.90
8928;DHT22;4499;48.304;11.902;2022-09-09T07:11:40;14.50;99.90
8928;DHT22;4499;48.304;11.902;2022-09-09T07:14:09;14.60;99.90
8928;DHT22;4499;48.304;11.902;2022-09-09T07:16:40;14.70;99.90
8928;DHT22;4499;48.304;11.902;2022-09-09T07:19:09;14.70;99.90
8928;DHT22;4499;48.304;11.902;2022-09-09T07:21:37;14.80;99.90
8928;DHT22;4499;48.304;11.902;2022-09-09T07:24:06;14.90;99.90
8928;DHT22;4499;48.304;11.902;2022-09-09T07:26:39;15.00;99.90
8928;DHT22;4499;48.304;11.902;2022-09-09T07:29:07;15.10;99.90
8928;DHT22;4499;48.304;11.902;2022-09-09T07:31:37;15.10;99.90
8928;DHT22;4499;48.304;11.902;2022-09-09T07:34:07;15.10;99.90
8928;DHT22;4499;48.304;11.902;2022-09-09T07:36:36;15.20;99.90
8928;DHT22;4499;48.304;11.902;2022-09-09T07:39:06;15.30;99.90
8928;DHT22;4499;48.304;11.902;2022-09-09T07:41:36;15.30;99.90
8928;DHT22;4499;48.304;11.902;2022-09-09T07:44:07;15.30;99.90
8928;DHT22;4499;48.304;11.902;2022-09-09T07:46:36;15.10;99.90
8928;DHT22;4499;48.304;11.902;2022-09-09T07:49:07;15.00;99.90
8928;DHT22;4499;48.304;11.902;2022-09-09T07:51:37;14.90;99.90
8928;DHT22;4499;48.304;11.902;2022-09-09T07:54:07;14.80;99.90
8928;DHT22;4499;48.304;11.902;2022-09-09T07:56:36;14.70;99.90
8928;DHT22;4499;48.304;11.902;2022-09-09T07:59:07;14.70;99.90
8928;DHT22;4499;48.304;11.902;2022-09-09T08:01:38;14.60;99.90
8928;DHT22;4499;48.304;11.902;2022-09-09T08:04:09;14.70;99.90
8928;DHT22;4499;48.304;11.902;2022-09-09T08:06:43;14.70;99.90
8928;DHT22;4499;48.304;11.902;2022-09-09T08:09:13;14.70;99.90
8928;DHT22;4499;48.304;11.902;2022-09-09T08:11:42;14.60;99.90
8928;DHT22;4499;48.304;11.902;2022-09-09T08:14:12;14.70;99.90
8928;DHT22;4499;48.304;11.902;2022-09-09T08:16:42;14.60;99.90
8928;DHT22;4499;48.304;11.902;2022-09-09T08:19:11;14.60;99.90
8928;DHT22;4499;48.304;11.902;2022-09-09T08:21:40;14.70;99.90
8928;DHT22;4499;48.304;11.902;2022-09-09T08:24:09;14.70;99.90
8928;DHT22;4499;48.304;11.902;2022-09-09T08:26:39;14.70;99.90
8928;DHT22;4499;48.304;11.902;2022-09-09T08:29:09;14.80;99.90
8928;DHT22;4499;48.304;11.902;2022-09-09T08:31:42;14.80;99.90
8928;DHT22;4499;48.304;11.902;2022-09-09T08:34:10;14.80;99.90
8928;DHT22;4499;48.304;11.902;2022-09-09T08:36:40;14.80;99.90
8928;DHT22;4499;48.304;11.902;2022-09-09T08:39:10;14.90;99.90
8928;DHT22;4499;48.304;11.902;2022-09-09T08:42:03;14.90;99.90
8928;DHT22;4499;48.304;11.902;2022-09-09T08:44:54;14.90;99.90
8928;DHT22;4499;48.304;11.902;2022-09-09T08:47:34;15.00;99.90
8928;DHT22;4499;48.304;11.902;2022-09-09T08:50:20;15.20;99.90
8928;DHT22;4499;48.304;11.902;2022-09-09T08:52:59;15.30;99.90
8928;DHT22;4499;48.304;11.902;2022-09-09T08:55:37;15.50;99.90
8928;DHT22;4499;48.304;11.902;2022-09-09T08:58:12;15.60;99.90
8928;DHT22;4499;48.304;11.902;2022-09-09T09:00:54;15.70;99.90
8928;DHT22;4499;48.304;11.902;2022-09-09T09:03:36;15.80;99.90
8928;DHT22;4499;48.304;11.902;2022-09-09T09:06:20;15.90;99.90
8928;DHT22;4499;48.304;11.902;2022-09-09T09:08:59;15.80;99.90
8928;DHT22;4499;48.304;11.902;2022-09-09T09:11:35;15.90;99.90
8928;DHT22;4499;48.304;11.902;2022-09-09T09:14:10;15.80;99.90
8928;DHT22;4499;48.304;11.902;2022-09-09T09:16:51;15.80;99.90
8928;DHT22;4499;48.304;11.902;2022-09-09T09:19:22;15.70;99.90
8928;DHT22;4499;48.304;11.902;2022-09-09T09:21:56;15.60;99.90
8928;DHT22;4499;48.304;11.902;2022-09-09T09:24:30;15.60;99.90
8928;DHT22;4499;48.304;11.902;2022-09-09T09:27:12;15.50;99.90
8928;DHT22;4499;48.304;11.902;2022-09-09T09:29:42;15.40;99.90
8928;DHT22;4499;48.304;11.902;2022-09-09T09:32:34;15.40;99.90
8928;DHT22;4499;48.304;11.902;2022-09-09T09:35:12;15.50;99.90
8928;DHT22;4499;48.304;11.902;2022-09-09T09:37:48;15.50;99.90
8928;DHT22;4499;48.304;11.902;2022-09-09T09:40:36;15.50;99.90
8928;DHT22;4499;48.304;11.902;2022-09-09T09:43:04;15.60;99.90
8928;DHT22;4499;48.304;11.902;2022-09-09T09:45:42;15.70;99.90
8928;DHT22;4499;48.304;11.902;2022-09-09T09:48:32;15.80;99.90
8928;DHT22;4499;48.304;11.902;2022-09-09T09:51:05;15.90;99.90
8928;DHT22;4499;48.304;11.902;2022-09-09T09:53:39;15.80;99.90
8928;DHT22;4499;48.304;11.902;2022-09-09T09:56:10;15.70;99.90
8928;DHT22;4499;48.304;11.902;2022-09-09T09:58:49;15.70;99.90
8928;DHT22;4499;48.304;11.902;2022-09-09T10:01:22;15.60;99.90
8928;DHT22;4499;48.304;11.902;2022-09-09T10:03:53;15.60;99.90
8928;DHT22;4499;48.304;11.902;2022-09-09T10:06:34;15.60;99.90
8928;DHT22;4499;48.304;11.902;2022-09-09T10:09:04;15.50;99.90
8928;DHT22;4499;48.304;11.902;2022-09-09T10:11:53;15.50;99.90
8928;DHT22;4499;48.304;11.902;2022-09-09T10:14:27;15.50;99.90
8928;DHT22;4499;48.304;11.902;2022-09-09T10:17:07;15.50;99.90
8928;DHT22;4499;48.304;11.902;2022-09-09T10:19:42;15.50;99.90
8928;DHT22;4499;48.304;11.902;2022-09-09T10:22:24;15.60;99.90
8928;DHT22;4499;48.304;11.902;2022-09-09T10:25:14;15.70;99.90
8928;DHT22;4499;48.304;11.902;2022-09-09T10:27:53;15.80;99.90
8928;DHT22;4499;48.304;11.902;2022-09-09T10:30:38;15.70;99.90
8928;DHT22;4499;48.304;11.902;2022-09-09T10:33:13;15.70;99.90
8928;DHT22;4499;48.304;11.902;2022-09-09T10:35:50;15.70;99.90
8928;DHT22;4499;48.304;11.902;2022-09-09T10:38:29;15.90;99.90
8928;DHT22;4499;48.304;11.902;2022-09-09T10:41:11;15.90;99.90
8928;DHT22;4499;48.304;11.902;2022-09-09T10:43:51;15.90;99.90
8928;DHT22;4499;48.304;11.902;2022-09-09T10:46:36;15.90;99.90
8928;DHT22;4499;48.304;11.902;2022-09-09T10:49:16;16.00;99.90
8928;DHT22;4499;48.304;11.902;2022-09-09T10:51:54;16.00;99.90
8928;DHT22;4499;48.304;11.902;2022-09-09T10:54:37;16.10;99.90
8928;DHT22;4499;48.304;11.902;2022-09-09T10:57:25;16.10;99.90
8928;DHT22;4499;48.304;11.902;2022-09-09T11:00:02;16.20;99.90
8928;DHT22;4499;48.304;11.902;2022-09-09T11:02:32;16.50;99.90
8928;DHT22;4499;48.304;11.902;2022-09-09T11:05:04;16.70;99.90
8928;DHT22;4499;48.304;11.902;2022-09-09T11:07:37;17.10;99.90
8928;DHT22;4499;48.304;11.902;2022-09-09T11:10:18;17.40;99.90
8928;DHT22;4499;48.304;11.902;2022-09-09T11:12:56;17.80;99.90
8928;DHT22;4499;48.304;11.902;2022-09-09T11:15:30;18.30;99.90
8928;DHT22;4499;48.304;11.902;2022-09-09T11:18:01;18.50;99.90
8928;DHT22;4499;48.304;11.902;2022-09-09T11:20:33;18.80;99.90
8928;DHT22;4499;48.304;11.902;2022-09-09T11:23:04;19.00;99.90
8928;DHT22;4499;48.304;11.902;2022-09-09T11:25:37;19.60;99.90
8928;DHT22;4499;48.304;11.902;2022-09-09T11:28:23;19.70;99.90
8928;DHT22;4499;48.304;11.902;2022-09-09T11:31:04;19.60;99.90
8928;DHT22;4499;48.304;11.902;2022-09-09T11:34:02;20.10;99.90
8928;DHT22;4499;48.304;11.902;2022-09-09T11:36:50;20.20;99.90
8928;DHT22;4499;48.304;11.902;2022-09-09T11:39:47;20.60;99.90
8928;DHT22;4499;48.304;11.902;2022-09-09T11:42:20;20.60;99.90
8928;DHT22;4499;48.304;11.902;2022-09-09T11:44:48;20.40;99.90
8928;DHT22;4499;48.304;11.902;2022-09-09T11:47:23;20.30;99.90
8928;DHT22;4499;48.304;11.902;2022-09-09T11:50:08;19.90;99.90
8928;DHT22;4499;48.304;11.902;2022-09-09T11:52:38;19.90;99.90
8928;DHT22;4499;48.304;11.902;2022-09-09T11:55:12;20.00;99.90
8928;DHT22;4499;48.304;11.902;2022-09-09T11:57:41;19.90;99.90
8928;DHT22;4499;48.304;11.902;2022-09-09T12:00:33;19.70;99.90
8928;DHT22;4499;48.304;11.902;2022-09-09T12:03:01;19.80;99.90
8928;DHT22;4499;48.304;11.902;2022-09-09T12:05:38;20.00;99.90
8928;DHT22;4499;48.304;11.902;2022-09-09T12:08:09;20.30;99.90
8928;DHT22;4499;48.304;11.902;2022-09-09T12:10:39;20.40;99.90
8928;DHT22;4499;48.304;11.902;2022-09-09T12:13:16;20.60;99.90
8928;DHT22;4499;48.304;11.902;2022-09-09T12:15:48;20.50;99.90
8928;DHT22;4499;48.304;11.902;2022-09-09T12:18:23;20.40;99.90
8928;DHT22;4499;48.304;11.902;2022-09-09T12:20:59;20.10;99.90
8928;DHT22;4499;48.304;11.902;2022-09-09T12:23:40;19.80;99.90
8928;DHT22;4499;48.304;11.902;2022-09-09T12:26:25;19.50;99.90
8928;DHT22;4499;48.304;11.902;2022-09-09T12:29:16;19.60;99.90
8928;DHT22;4499;48.304;11.902;2022-09-09T12:31:53;19.40;99.90
8928;DHT22;4499;48.304;11.902;2022-09-09T12:34:36;19.50;99.90
8928;DHT22;4499;48.304;11.902;2022-09-09T12:37:15;19.20;99.90
8928;DHT22;4499;48.304;11.902;2022-09-09T12:39:49;19.00;99.90
8928;DHT22;4499;48.304;11.902;2022-09-09T12:42:24;18.70;99.90
8928;DHT22;4499;48.304;11.902;2022-09-09T12:44:58;18.60;99.90
8928;DHT22;4499;48.304;11.902;2022-09-09T12:47:37;18.40;99.90
8928;DHT22;4499;48.304;11.902;2022-09-09T12:50:16;18.50;99.90
8928;DHT22;4499;48.304;11.902;2022-09-09T12:52:45;18.30;99.90
8928;DHT22;4499;48.304;11.902;2022-09-09T12:55:18;18.30;99.90
8928;DHT22;4499;48.304;11.902;2022-09-09T12:57:49;18.20;99.90
8928;DHT22;4499;48.304;11.902;2022-09-09T13:00:21;18.30;99.90
8928;DHT22;4499;48.304;11.902;2022-09-09T13:02:52;18.40;99.90
8928;DHT22;4499;48.304;11.902;2022-09-09T13:05:23;18.50;99.90
8928;DHT22;4499;48.304;11.902;2022-09-09T13:07:52;18.40;99.90
8928;DHT22;4499;48.304;11.902;2022-09-09T13:10:31;18.50;99.90
8928;DHT22;4499;48.304;11.902;2022-09-09T13:13:16;18.60;99.90
8928;DHT22;4499;48.304;11.902;2022-09-09T13:15:51;18.60;99.90
8928;DHT22;4499;48.304;11.902;2022-09-09T13:18:23;18.80;99.90
8928;DHT22;4499;48.304;11.902;2022-09-09T13:20:52;18.90;99.90
8928;DHT22;4499;48.304;11.902;2022-09-09T13:23:21;18.80;99.90
8928;DHT22;4499;48.304;11.902;2022-09-09T13:25:57;18.90;99.90
8928;DHT22;4499;48.304;11.902;2022-09-09T13:28:27;18.80;99.90
8928;DHT22;4499;48.304;11.902;2022-09-09T13:31:02;18.70;99.90
8928;DHT22;4499;48.304;11.902;2022-09-09T13:33:33;18.70;99.90
8928;DHT22;4499;48.304;11.902;2022-09-09T13:36:05;18.70;99.90
8928;DHT22;4499;48.304;11.902;2022-09-09T13:38:37;18.60;99.90
8928;DHT22;4499;48.304;11.902;2022-09-09T13:41:07;18.60;99.90
8928;DHT22;4499;48.304;11.902;2022-09-09T13:43:37;18.60;99.90
8928;DHT22;4499;48.304;11.902;2022-09-09T13:46:31;18.60;99.90
8928;DHT22;4499;48.304;11.902;2022-09-09T13:49:01;18.70;99.90
8928;DHT22;4499;48.304;11.902;2022-09-09T13:51:38;18.70;99.90
8928;DHT22;4499;48.304;11.902;2022-09-09T13:54:10;18.80;99.90
8928;DHT22;4499;48.304;11.902;2022-09-09T13:56:39;18.90;99.90
8928;DHT22;4499;48.304;11.902;2022-09-09T13:59:11;19.10;99.90
8928;DHT22;4499;48.304;11.902;2022-09-09T14:01:41;19.20;99.90
8928;DHT22;4499;48.304;11.902;2022-09-09T14:04:11;19.20;99.90
8928;DHT22;4499;48.304;11.902;2022-09-09T14:06:39;19.20;99.90
8928;DHT22;4499;48.304;11.902;2022-09-09T14:09:10;19.20;99.90
8928;DHT22;4499;48.304;11.902;2022-09-09T14:11:39;19.40;99.90
8928;DHT22;4499;48.304;11.902;2022-09-09T14:14:07;19.20;99.90
8928;DHT22;4499;48.304;11.902;2022-09-09T14:16:35;19.20;99.90
8928;DHT22;4499;48.304;11.902;2022-09-09T14:19:05;19.30;99.90
8928;DHT22;4499;48.304;11.902;2022-09-09T14:21:33;19.20;99.90
8928;DHT22;4499;48.304;11.902;2022-09-09T14:24:02;19.00;99.90
8928;DHT22;4499;48.304;11.902;2022-09-09T14:26:30;19.00;99.90
8928;DHT22;4499;48.304;11.902;2022-09-09T14:28:58;19.00;99.90
8928;DHT22;4499;48.304;11.902;2022-09-09T14:31:27;18.90;99.90
8928;DHT22;4499;48.304;11.902;2022-09-09T14:33:55;18.90;99.90
8928;DHT22;4499;48.304;11.902;2022-09-09T14:36:25;19.00;99.90
8928;DHT22;4499;48.304;11.902;2022-09-09T14:38:53;19.00;99.90
8928;DHT22;4499;48.304;11.902;2022-09-09T14:41:21;18.80;99.90
8928;DHT22;4499;48.304;11.902;2022-09-09T14:43:49;18.60;99.90
8928;DHT22;4499;48.304;11.902;2022-09-09T14:46:19;18.50;99.90
8928;DHT22;4499;48.304;11.902;2022-09-09T14:48:48;18.30;99.90
8928;DHT22;4499;48.304;11.902;2022-09-09T14:51:18;18.40;99.90
8928;DHT22;4499;48.304;11.902;2022-09-09T14:53:51;18.40;99.90
8928;DHT22;4499;48.304;11.902;2022-09-09T14:56:22;18.30;99.90
8928;DHT22;4499;48.304;11.902;2022-09-09T14:58:53;18.50;99.90
8928;DHT22;4499;48.304;11.902;2022-09-09T15:01:22;18.40;99.90
8928;DHT22;4499;48.304;11.902;2022-09-09T15:03:52;18.50;99.90
8928;DHT22;4499;48.304;11.902;2022-09-09T15:06:21;18.50;99.90
8928;DHT22;4499;48.304;11.902;2022-09-09T15:08:52;18.60;99.90
8928;DHT22;4499;48.304;11.902;2022-09-09T15:11:21;18.50;99.90
8928;DHT22;4499;48.304;11.902;2022-09-09T15:13:52;18.50;99.90
8928;DHT22;4499;48.304;11.902;2022-09-09T15:16:23;18.50;99.90
8928;DHT22;4499;48.304;11.902;2022-09-09T15:18:52;18.50;99.90
8928;DHT22;4499;48.304;11.902;2022-09-09T15:21:22;18.60;99.90
8928;DHT22;4499;48.304;11.902;2022-09-09T15:23:52;18.50;99.90
8928;DHT22;4499;48.304;11.902;2022-09-09T15:26:20;18.50;99.90
8928;DHT22;4499;48.304;11.902;2022-09-09T15:28:49;18.40;99.90
8928;DHT22;4499;48.304;11.902;2022-09-09T15:31:18;18.40;99.90
8928;DHT22;4499;48.304;11.902;2022-09-09T15:33:47;18.40;99.90
8928;DHT22;4499;48.304;11.902;2022-09-09T15:36:18;18.10;99.90
8928;DHT22;4499;48.304;11.902;2022-09-09T15:38:46;18.10;99.90
8928;DHT22;4499;48.304;11.902;2022-09-09T15:41:17;18.10;99.90
8928;DHT22;4499;48.304;11.902;2022-09-09T15:43:46;18.00;99.90
8928;DHT22;4499;48.304;11.902;2022-09-09T15:46:26;18.00;99.90
8928;DHT22;4499;48.304;11.902;2022-09-09T15:48:56;17.90;99.90
8928;DHT22;4499;48.304;11.902;2022-09-09T15:51:25;17.90;99.90
8928;DHT22;4499;48.304;11.902;2022-09-09T15:54:09;17.80;99.90
8928;DHT22;4499;48.304;11.902;2022-09-09T15:56:40;17.80;99.90
8928;DHT22;4499;48.304;11.902;2022-09-09T15:59:09;17.80;99.90
8928;DHT22;4499;48.304;11.902;2022-09-09T16:01:38;17.80;99.90
8928;DHT22;4499;48.304;11.902;2022-09-09T16:04:07;17.80;99.90
8928;DHT22;4499;48.304;11.902;2022-09-09T16:06:36;17.90;99.90
8928;DHT22;4499;48.304;11.902;2022-09-09T16:09:05;17.90;99.90
8928;DHT22;4499;48.304;11.902;2022-09-09T16:11:35;18.00;99.90
8928;DHT22;4499;48.304;11.902;2022-09-09T16:14:05;18.00;99.90
8928;DHT22;4499;48.304;11.902;2022-09-09T16:16:34;18.10;99.90
8928;DHT22;4499;48.304;11.902;2022-09-09T16:19:04;18.20;99.90
8928;DHT22;4499;48.304;11.902;2022-09-09T16:21:34;18.20;99.90